This is the latest recevied weather packets stored in our database for station/object K6CED. If no packets are shown the sender has not sent any weather packets the latest 10 day(s).
| Time | Temp. | Humidity | Pressure | Rain* | Wind** | Luminosity | Snow |
|---|---|---|---|---|---|---|---|
| 1777941381 | 18.33° C | 54% | 1016.1 hPa | 0 mm | - | 235 W/m² | - |
| 1777941078 | 18.89° C | 53% | 1016.1 hPa | 0 mm | - | 272 W/m² | - |
| 1777940774 | 18.89° C | 53% | 1016.2 hPa | 0 mm | - | 254 W/m² | - |
| 1777940467 | 18.33° C | 54% | 1016.2 hPa | 0 mm | - | 236 W/m² | - |
| 1777940164 | 19.44° C | 53% | 1016.3 hPa | 0 mm | - | 346 W/m² | - |
| 1777939862 | 19.44° C | 52% | 1016.1 hPa | 0 mm | - | 353 W/m² | - |
| 1777939558 | 19.44° C | 53% | 1016.1 hPa | 0 mm | - | 392 W/m² | - |
| 1777939256 | 18.89° C | 54% | 1016.2 hPa | 0 mm | - | 412 W/m² | - |
| 1777938952 | 18.89° C | 54% | 1016.1 hPa | 0 mm | - | 445 W/m² | - |
| 1777938649 | 18.89° C | 53% | 1015.9 hPa | 0 mm | - | 503 W/m² | - |
| 1777938345 | 18.89° C | 53% | 1016.1 hPa | 0 mm | - | 200 W/m² | - |
| 1777938043 | 19.44° C | 51% | 1016.2 hPa | 0 mm | - | 655 W/m² | - |
| 1777937738 | 20° C | 50% | 1015.9 hPa | 0 mm | - | 712 W/m² | - |
| 1777937435 | 19.44° C | 49% | 1015.8 hPa | 0 mm | - | 512 W/m² | - |
| 1777937132 | 18.89° C | 51% | 1016 hPa | 0 mm | - | 318 W/m² | - |
| 1777936831 | 18.89° C | 51% | 1015.9 hPa | 0 mm | - | 226 W/m² | - |
| 1777936526 | 18.33° C | 57% | 1015.8 hPa | 0 mm | - | 290 W/m² | - |
| 1777936222 | 18.33° C | 56% | 1016.1 hPa | 0 mm | - | 370 W/m² | - |
| 1777935919 | 17.78° C | 56% | 1015.8 hPa | 0 mm | - | 196 W/m² | - |
| 1777935618 | 18.33° C | 56% | 1016.1 hPa | 0 mm | - | 152 W/m² | - |
| 1777935314 | 18.33° C | 56% | 1016 hPa | 0 mm | - | 196 W/m² | - |
| 1777935011 | 18.33° C | 54% | 1015.9 hPa | 0 mm | - | 181 W/m² | - |
| 1777934708 | 18.33° C | 55% | 1015.9 hPa | 0 mm | - | 179 W/m² | - |
| 1777934405 | 18.89° C | 54% | 1016.1 hPa | 0 mm | - | 261 W/m² | - |
| 1777934101 | 18.89° C | 54% | 1016.1 hPa | 0 mm | - | 344 W/m² | - |
* Rain latest hour (hover to see other rain measurements)
** Current wind speed in m/s (hover to see current wind gust speed)